Time;durP1;ratioP1;P1;durP2;ratioP2;P2;SDS_P1;SDS_P2;PMS_P1;PMS_P2;Temp;Humidity;BMP_temperature;BMP_pressure;BME280_temperature;BME280_humidity;BME280_pressure;Samples;Min_cycle;Max_cycle;Signal;HPM_P1;HPM_P2
2021/08/20 00:01:09;;;;;;;3.87;3.40;;;18.00;99.90;;;;;;5116240;28;20440;-65
2021/08/20 00:03:35;;;;;;;7.97;4.03;;;18.00;99.90;;;;;;5116844;28;20180;-65
2021/08/20 00:06:01;;;;;;;5.77;4.50;;;18.00;99.90;;;;;;5116259;28;20621;-65
2021/08/20 00:08:26;;;;;;;3.30;3.00;;;17.90;99.90;;;;;;5116830;28;20251;-64
2021/08/20 00:10:52;;;;;;;4.03;3.50;;;17.90;99.90;;;;;;5116190;28;20192;-65
2021/08/20 00:13:17;;;;;;;4.80;3.90;;;17.90;99.90;;;;;;5149453;27;20179;-65
2021/08/20 00:15:45;;;;;;;6.80;3.67;;;17.90;99.90;;;;;;5116134;28;20237;-64
2021/08/20 00:18:11;;;;;;;4.63;3.17;;;17.90;99.90;;;;;;5148994;27;20207;-65
2021/08/20 00:20:37;;;;;;;4.03;3.10;;;17.90;99.90;;;;;;5116098;28;20514;-65
2021/08/20 00:23:03;;;;;;;5.10;3.63;;;17.90;99.90;;;;;;5116225;28;20879;-64
2021/08/20 00:25:29;;;;;;;4.60;3.30;;;17.80;99.90;;;;;;5115999;27;20199;-65
2021/08/20 00:27:55;;;;;;;9.10;3.70;;;17.80;99.90;;;;;;5115144;28;20577;-65
2021/08/20 00:30:20;;;;;;;7.50;3.17;;;17.80;99.90;;;;;;5114339;28;20286;-64
2021/08/20 00:32:46;;;;;;;8.87;3.70;;;17.80;99.90;;;;;;5148986;27;20266;-66
2021/08/20 00:35:11;;;;;;;5.20;3.50;;;17.70;99.90;;;;;;5115616;28;20286;-64
2021/08/20 00:37:38;;;;;;;5.20;2.63;;;17.70;99.90;;;;;;5115520;28;20203;-64
2021/08/20 00:40:05;;;;;;;4.60;3.37;;;17.70;99.90;;;;;;5115470;28;20223;-65
2021/08/20 00:42:31;;;;;;;3.83;3.50;;;17.60;99.90;;;;;;5115868;28;20465;-65
2021/08/20 00:44:57;;;;;;;6.63;3.23;;;17.60;99.90;;;;;;5148590;27;20464;-65
2021/08/20 00:47:23;;;;;;;5.73;3.70;;;17.50;99.90;;;;;;5115767;28;20416;-64
2021/08/20 00:49:50;;;;;;;8.00;3.80;;;17.50;99.90;;;;;;5115337;28;20438;-65
2021/08/20 00:52:16;;;;;;;5.77;3.23;;;17.50;99.90;;;;;;5114203;28;20184;-64
2021/08/20 00:54:41;;;;;;;5.53;3.30;;;17.40;99.90;;;;;;5148366;27;20462;-66
2021/08/20 00:57:07;;;;;;;6.17;3.43;;;17.40;99.90;;;;;;5148247;27;20869;-64
2021/08/20 00:59:33;;;;;;;5.37;4.30;;;17.40;99.90;;;;;;5115230;28;20192;-65
2021/08/20 01:01:59;;;;;;;4.83;3.27;;;17.40;99.90;;;;;;5113935;28;20176;-64
2021/08/20 01:04:25;;;;;;;6.03;3.70;;;17.40;99.90;;;;;;5113860;28;20570;-64
2021/08/20 01:06:54;;;;;;;4.50;3.10;;;17.40;99.90;;;;;;5115073;28;20415;-65
2021/08/20 01:09:20;;;;;;;5.57;3.70;;;17.40;99.90;;;;;;5113797;28;20176;-65
2021/08/20 01:11:47;;;;;;;4.87;3.93;;;17.40;99.90;;;;;;5115145;27;20404;-66
2021/08/20 01:14:16;;;;;;;4.03;3.40;;;17.40;99.90;;;;;;5148066;27;20469;-65
2021/08/20 01:16:42;;;;;;;6.20;3.40;;;17.30;99.90;;;;;;5114794;28;20576;-65
2021/08/20 01:19:08;;;;;;;9.93;4.17;;;17.30;99.90;;;;;;5114886;28;20503;-66
2021/08/20 01:21:34;;;;;;;5.80;3.80;;;17.30;99.90;;;;;;5114784;28;20432;-64
2021/08/20 01:24:02;;;;;;;4.80;3.63;;;17.20;99.90;;;;;;5114589;28;20512;-65
2021/08/20 01:26:28;;;;;;;5.10;3.30;;;17.20;99.90;;;;;;5114680;28;20194;-64
2021/08/20 01:28:56;;;;;;;5.33;2.93;;;17.10;99.90;;;;;;5114782;28;20435;-65
2021/08/20 01:31:21;;;;;;;4.10;2.80;;;17.10;99.90;;;;;;5114529;28;20499;-65
2021/08/20 01:33:47;;;;;;;4.87;3.33;;;17.10;99.90;;;;;;5113510;28;20914;-65
2021/08/20 01:36:13;;;;;;;3.80;2.97;;;17.10;99.90;;;;;;5114520;28;20231;-65
2021/08/20 01:38:47;;;;;;;4.83;2.83;;;17.00;99.90;;;;;;5114726;28;20302;-65
2021/08/20 01:41:14;;;;;;;4.47;3.33;;;17.00;99.90;;;;;;5147522;27;20294;-65
2021/08/20 01:43:40;;;;;;;6.20;3.63;;;16.90;99.90;;;;;;5114399;28;20448;-64
2021/08/20 01:46:05;;;;;;;5.67;3.53;;;16.90;99.90;;;;;;5114397;28;20424;-65
2021/08/20 01:48:31;;;;;;;5.90;3.40;;;16.90;99.90;;;;;;5113429;28;20608;-64
2021/08/20 01:50:56;;;;;;;7.50;3.30;;;16.90;99.90;;;;;;5114368;28;20697;-65
2021/08/20 01:53:22;;;;;;;4.43;3.23;;;16.80;99.90;;;;;;5114873;28;20186;-65
2021/08/20 01:55:49;;;;;;;3.60;2.73;;;16.80;99.90;;;;;;5114314;28;20227;-64
2021/08/20 01:58:15;;;;;;;4.50;3.03;;;16.80;99.90;;;;;;5114672;28;20210;-66
2021/08/20 02:00:41;;;;;;;3.73;2.90;;;16.80;99.90;;;;;;5114314;28;20789;-66
2021/08/20 02:03:07;;;;;;;7.40;3.40;;;16.80;99.90;;;;;;5114629;28;20424;-65
2021/08/20 02:05:33;;;;;;;4.70;3.60;;;16.70;99.90;;;;;;5114143;28;21000;-65
2021/08/20 02:08:00;;;;;;;4.67;2.73;;;16.70;99.90;;;;;;5114586;28;20905;-64
2021/08/20 02:10:25;;;;;;;3.93;3.27;;;16.70;99.90;;;;;;5114127;28;20856;-64
2021/08/20 02:12:52;;;;;;;4.40;3.00;;;16.70;99.90;;;;;;5114106;28;20450;-65
2021/08/20 02:15:17;;;;;;;7.23;4.17;;;16.70;99.90;;;;;;5114079;28;20994;-65
2021/08/20 02:17:43;;;;;;;3.10;2.80;;;16.60;99.90;;;;;;5114362;28;20472;-65
2021/08/20 02:20:09;;;;;;;4.93;2.97;;;16.60;99.90;;;;;;5114027;28;20297;-64
2021/08/20 02:22:35;;;;;;;3.77;3.00;;;16.60;99.90;;;;;;5147252;27;20176;-65
2021/08/20 02:25:00;;;;;;;6.40;3.10;;;16.50;99.90;;;;;;5113950;28;20472;-65
2021/08/20 02:27:26;;;;;;;3.20;2.27;;;16.50;99.90;;;;;;5114264;28;20233;-65
2021/08/20 02:29:51;;;;;;;3.87;3.57;;;16.50;99.90;;;;;;5113995;28;20206;-64
2021/08/20 02:32:17;;;;;;;6.23;3.40;;;16.50;99.90;;;;;;5114015;28;20172;-64
2021/08/20 02:34:43;;;;;;;3.83;2.70;;;16.50;99.90;;;;;;5114029;28;20266;-66
2021/08/20 02:37:09;;;;;;;6.10;3.80;;;16.40;99.90;;;;;;5114031;28;20691;-64
2021/08/20 02:39:34;;;;;;;4.73;2.80;;;16.40;99.90;;;;;;5113891;28;20420;-65
2021/08/20 02:42:01;;;;;;;4.67;3.17;;;16.40;99.90;;;;;;5113951;28;20217;-65
2021/08/20 02:44:27;;;;;;;5.00;2.77;;;16.40;99.90;;;;;;5113827;28;20168;-64
2021/08/20 02:46:52;;;;;;;5.77;2.80;;;16.40;99.90;;;;;;5147078;27;20530;-64
2021/08/20 02:49:18;;;;;;;6.70;3.90;;;16.30;99.90;;;;;;5113726;28;20770;-65
2021/08/20 02:51:43;;;;;;;4.90;3.00;;;16.30;99.90;;;;;;5117829;28;20176;-65
2021/08/20 02:54:09;;;;;;;5.73;3.00;;;16.30;99.90;;;;;;5117693;28;20207;-65
2021/08/20 02:56:35;;;;;;;3.77;3.20;;;16.30;99.90;;;;;;5116285;28;20240;-64
2021/08/20 02:59:00;;;;;;;4.40;3.60;;;16.30;99.90;;;;;;5117495;28;20290;-65
2021/08/20 03:01:26;;;;;;;5.00;4.33;;;16.40;99.90;;;;;;5117591;28;20638;-65
2021/08/20 03:03:52;;;;;;;6.27;3.27;;;16.30;99.90;;;;;;5150735;27;20649;-64
2021/08/20 03:06:18;;;;;;;3.47;2.67;;;16.30;99.90;;;;;;5117467;28;20567;-65
2021/08/20 03:08:44;;;;;;;6.20;3.03;;;16.30;99.90;;;;;;5116409;28;20782;-64
2021/08/20 03:11:09;;;;;;;4.67;3.27;;;16.30;99.90;;;;;;5117301;28;20503;-64
2021/08/20 03:13:35;;;;;;;5.20;3.47;;;16.20;99.90;;;;;;5117926;28;20197;-64
2021/08/20 03:16:01;;;;;;;5.47;3.30;;;16.20;99.90;;;;;;5117227;28;20188;-66
2021/08/20 03:18:26;;;;;;;4.13;3.10;;;16.20;99.90;;;;;;5117203;28;20547;-65
2021/08/20 03:20:52;;;;;;;3.60;3.00;;;16.20;99.90;;;;;;5117175;28;20195;-65
2021/08/20 03:23:18;;;;;;;7.83;3.87;;;16.20;99.90;;;;;;5115747;28;20172;-65
2021/08/20 03:25:43;;;;;;;7.77;4.00;;;16.20;99.90;;;;;;5115910;28;20276;-64
2021/08/20 03:28:09;;;;;;;3.70;3.40;;;16.10;99.90;;;;;;5117354;28;20172;-64
2021/08/20 03:30:35;;;;;;;3.93;3.13;;;16.10;99.90;;;;;;5116929;28;20280;-65
2021/08/20 03:33:01;;;;;;;4.73;3.20;;;16.10;99.90;;;;;;5117398;28;20293;-66
2021/08/20 03:35:27;;;;;;;5.30;3.33;;;16.10;99.90;;;;;;5116946;28;20427;-65
2021/08/20 03:37:53;;;;;;;6.13;3.27;;;16.10;99.90;;;;;;5150094;27;20984;-64
2021/08/20 03:40:19;;;;;;;5.00;3.33;;;16.00;99.90;;;;;;5116757;28;20187;-64
2021/08/20 03:42:44;;;;;;;6.30;3.60;;;16.00;99.90;;;;;;5117178;28;20640;-65
2021/08/20 03:45:11;;;;;;;5.17;3.83;;;16.00;99.90;;;;;;5116612;28;20420;-64
2021/08/20 03:47:37;;;;;;;5.67;3.20;;;16.00;99.90;;;;;;5117008;28;20171;-64
2021/08/20 03:50:06;;;;;;;5.20;4.27;;;15.90;99.90;;;;;;5116542;28;20924;-66
2021/08/20 03:52:32;;;;;;;4.90;3.67;;;15.90;99.90;;;;;;5116858;27;20408;-64
2021/08/20 03:54:57;;;;;;;4.57;3.17;;;15.90;99.90;;;;;;5116530;28;20918;-64
2021/08/20 03:57:23;;;;;;;4.90;3.20;;;15.90;99.90;;;;;;5116641;28;20286;-64
2021/08/20 03:59:49;;;;;;;3.47;3.07;;;15.90;99.90;;;;;;5116465;28;20192;-65
2021/08/20 04:02:14;;;;;;;7.30;3.33;;;15.90;99.90;;;;;;5116347;28;20179;-65
2021/08/20 04:04:40;;;;;;;5.63;3.67;;;15.90;99.90;;;;;;5116279;28;20672;-64
2021/08/20 04:07:05;;;;;;;4.33;3.20;;;15.90;99.90;;;;;;5116491;28;20180;-65
2021/08/20 04:09:31;;;;;;;7.80;3.40;;;15.90;99.90;;;;;;5116293;28;20177;-65
2021/08/20 04:11:56;;;;;;;4.30;3.17;;;15.90;99.90;;;;;;5114927;28;20259;-64
2021/08/20 04:14:22;;;;;;;4.90;3.23;;;15.80;99.90;;;;;;5116104;28;20176;-65
2021/08/20 04:16:48;;;;;;;4.50;3.37;;;15.80;99.90;;;;;;5114780;28;20179;-65
2021/08/20 04:19:13;;;;;;;5.07;3.20;;;15.80;99.90;;;;;;5115979;28;20211;-64
2021/08/20 04:21:39;;;;;;;6.00;3.50;;;15.80;99.90;;;;;;5115933;28;20176;-65
2021/08/20 04:24:06;;;;;;;4.40;3.20;;;15.80;99.90;;;;;;5114584;28;20230;-64
2021/08/20 04:26:32;;;;;;;3.83;3.43;;;15.80;99.90;;;;;;5148942;27;20200;-64
2021/08/20 04:28:57;;;;;;;3.83;3.37;;;15.80;99.90;;;;;;5115894;28;20415;-65
2021/08/20 04:31:23;;;;;;;6.00;3.90;;;15.80;99.90;;;;;;5115686;28;20237;-64
2021/08/20 04:33:49;;;;;;;4.77;3.37;;;15.80;99.90;;;;;;5115803;28;20550;-65
2021/08/20 04:36:14;;;;;;;4.47;3.87;;;15.80;99.90;;;;;;5114333;28;20278;-64
2021/08/20 04:38:40;;;;;;;5.47;3.50;;;15.90;99.90;;;;;;5114338;28;20208;-65
2021/08/20 04:41:09;;;;;;;8.40;3.87;;;15.90;99.90;;;;;;5115540;28;20252;-64
2021/08/20 04:43:37;;;;;;;6.03;3.40;;;16.00;99.90;;;;;;5116293;28;20172;-65
2021/08/20 04:46:04;;;;;;;4.53;3.87;;;16.00;99.90;;;;;;5115466;28;20786;-64
2021/08/20 04:48:29;;;;;;;7.10;3.90;;;16.10;99.90;;;;;;5116014;28;20438;-64
2021/08/20 04:50:56;;;;;;;7.70;3.37;;;16.10;99.90;;;;;;5148450;27;20473;-64
2021/08/20 04:53:25;;;;;;;5.10;3.40;;;16.20;99.90;;;;;;5115440;28;20176;-66
2021/08/20 04:55:50;;;;;;;9.70;3.77;;;16.20;99.90;;;;;;5115283;28;20890;-64
2021/08/20 04:58:16;;;;;;;4.90;3.40;;;16.30;99.90;;;;;;5115551;28;20554;-64
2021/08/20 05:00:46;;;;;;;7.17;3.83;;;16.30;99.90;;;;;;5115201;28;20214;-64
2021/08/20 05:03:12;;;;;;;4.63;3.83;;;16.40;99.90;;;;;;5114268;28;20591;-65
2021/08/20 05:05:43;;;;;;;8.43;3.40;;;16.50;99.90;;;;;;5115160;28;20459;-65
2021/08/20 05:08:09;;;;;;;4.30;3.30;;;16.60;99.90;;;;;;5148431;27;20438;-65
2021/08/20 05:10:35;;;;;;;6.73;3.70;;;16.70;99.90;;;;;;5115117;28;20510;-66
2021/08/20 05:13:00;;;;;;;5.83;4.17;;;16.80;99.90;;;;;;5147714;27;20180;-65
2021/08/20 05:15:29;;;;;;;5.20;3.53;;;16.90;99.90;;;;;;5113646;28;20275;-65
2021/08/20 05:17:55;;;;;;;6.63;3.83;;;16.90;99.90;;;;;;5115184;28;20204;-65
2021/08/20 05:20:20;;;;;;;5.37;3.87;;;17.00;99.90;;;;;;5113575;28;20428;-65
2021/08/20 05:22:51;;;;;;;5.80;4.20;;;17.10;99.90;;;;;;5115168;28;20419;-64
2021/08/20 05:25:18;;;;;;;4.80;3.80;;;17.30;99.90;;;;;;5114855;28;20311;-65
2021/08/20 05:27:44;;;;;;;4.70;3.73;;;17.30;99.90;;;;;;5115112;28;20412;-66
2021/08/20 05:30:10;;;;;;;6.10;4.10;;;17.40;99.90;;;;;;5114685;28;20522;-65
2021/08/20 05:32:36;;;;;;;5.83;4.07;;;17.50;99.90;;;;;;5114972;28;20420;-66
2021/08/20 05:35:03;;;;;;;4.87;3.60;;;17.60;99.90;;;;;;5114534;28;20545;-64
2021/08/20 05:37:29;;;;;;;5.90;3.73;;;17.70;99.90;;;;;;5114767;28;20464;-65
2021/08/20 05:39:55;;;;;;;6.00;4.37;;;17.80;99.90;;;;;;5147633;27;20443;-65
2021/08/20 05:42:20;;;;;;;4.93;3.23;;;17.90;99.90;;;;;;5114467;28;20172;-66
2021/08/20 05:44:46;;;;;;;5.40;4.20;;;18.00;99.90;;;;;;5114423;28;20199;-65
2021/08/20 05:47:12;;;;;;;5.53;3.80;;;18.10;99.90;;;;;;5114713;28;20262;-65
2021/08/20 05:49:37;;;;;;;7.23;4.20;;;18.20;99.90;;;;;;5113088;28;20286;-65
2021/08/20 05:52:03;;;;;;;4.80;4.30;;;18.30;99.90;;;;;;5147622;27;20203;-65
2021/08/20 05:54:29;;;;;;;5.37;3.47;;;18.50;99.90;;;;;;5114363;28;20594;-65
2021/08/20 05:56:54;;;;;;;6.20;4.50;;;18.60;99.90;;;;;;5114282;28;20404;-64
2021/08/20 05:59:20;;;;;;;4.33;3.20;;;18.70;99.90;;;;;;5114420;28;20617;-64
2021/08/20 06:01:46;;;;;;;4.20;3.00;;;18.80;99.90;;;;;;5113042;28;20186;-65
2021/08/20 06:04:11;;;;;;;4.87;2.87;;;18.90;99.90;;;;;;5114180;28;20431;-65
2021/08/20 06:06:38;;;;;;;4.30;3.30;;;19.00;99.90;;;;;;5114437;28;20206;-64
2021/08/20 06:09:05;;;;;;;4.40;2.97;;;19.10;99.90;;;;;;5114173;28;20171;-64
2021/08/20 06:11:31;;;;;;;5.57;3.50;;;19.20;99.90;;;;;;5114046;28;20416;-64
2021/08/20 06:13:57;;;;;;;6.40;3.40;;;19.30;99.90;;;;;;5114182;28;20479;-66
2021/08/20 06:16:22;;;;;;;5.90;3.47;;;19.40;99.90;;;;;;5113968;28;20912;-64
2021/08/20 06:18:48;;;;;;;5.17;3.67;;;19.50;99.90;;;;;;5112721;28;20213;-65
2021/08/20 06:21:13;;;;;;;4.60;3.23;;;19.60;99.90;;;;;;5114058;28;20273;-66
2021/08/20 06:23:39;;;;;;;4.60;3.37;;;19.80;99.90;;;;;;5114151;28;20225;-65
2021/08/20 06:26:05;;;;;;;5.23;3.33;;;19.90;99.90;;;;;;5115795;28;20764;-64
2021/08/20 06:28:31;;;;;;;4.30;3.30;;;20.00;99.90;;;;;;5118712;28;20229;-65
2021/08/20 06:31:02;;;;;;;3.93;3.20;;;20.10;99.90;;;;;;5118129;28;20213;-65
2021/08/20 06:33:28;;;;;;;6.23;3.50;;;20.20;99.90;;;;;;5116803;28;20506;-65
2021/08/20 06:35:53;;;;;;;7.10;3.03;;;20.40;99.90;;;;;;5151242;27;20522;-65
2021/08/20 06:38:19;;;;;;;5.03;3.17;;;20.50;99.90;;;;;;5118345;28;20274;-64
2021/08/20 06:40:45;;;;;;;4.67;3.63;;;20.60;99.90;;;;;;5117962;28;20197;-65
2021/08/20 06:43:10;;;;;;;5.77;2.90;;;20.70;99.90;;;;;;5118385;28;20181;-65
2021/08/20 06:45:36;;;;;;;3.40;3.10;;;20.80;99.90;;;;;;5151059;27;20434;-65
2021/08/20 06:48:01;;;;;;;6.53;3.07;;;20.90;99.90;;;;;;5118216;28;20244;-65
2021/08/20 06:50:27;;;;;;;4.60;3.57;;;21.00;99.90;;;;;;5117806;28;20656;-65
2021/08/20 06:52:53;;;;;;;4.07;3.20;;;21.20;99.90;;;;;;5118156;28;20179;-65
2021/08/20 06:55:20;;;;;;;9.37;3.50;;;21.30;99.90;;;;;;5117680;28;20206;-65
2021/08/20 06:57:46;;;;;;;4.07;3.07;;;21.40;99.90;;;;;;5116360;28;20760;-65
2021/08/20 07:00:12;;;;;;;3.27;2.80;;;21.50;99.90;;;;;;5117630;28;20432;-65
2021/08/20 07:02:45;;;;;;;3.70;2.30;;;21.60;99.90;;;;;;5150928;27;20424;-65
2021/08/20 07:05:11;;;;;;;4.07;2.47;;;21.70;99.90;;;;;;5118074;28;20192;-65
2021/08/20 07:07:37;;;;;;;3.37;2.37;;;21.90;99.90;;;;;;5117742;28;20901;-65
2021/08/20 07:10:09;;;;;;;2.63;2.40;;;22.00;99.90;;;;;;5117382;28;20430;-66
2021/08/20 07:12:35;;;;;;;3.27;2.83;;;22.10;99.90;;;;;;5150765;27;20225;-65
2021/08/20 07:15:04;;;;;;;3.30;2.40;;;22.20;99.90;;;;;;5150385;27;20442;-65
2021/08/20 07:17:30;;;;;;;4.10;2.27;;;22.30;99.90;;;;;;5117466;28;20467;-65
2021/08/20 07:19:56;;;;;;;2.77;2.03;;;22.40;99.90;;;;;;5150342;27;20770;-66
2021/08/20 07:22:22;;;;;;;2.33;2.10;;;22.50;99.90;;;;;;5117100;28;20943;-66
2021/08/20 07:24:47;;;;;;;4.33;2.57;;;22.70;99.90;;;;;;5146703;27;20697;-66
2021/08/20 07:27:13;;;;;;;5.70;2.47;;;22.80;99.90;;;;;;5096866;28;20589;-65
2021/08/20 07:29:38;;;;;;;2.60;2.27;;;22.90;99.90;;;;;;5096613;28;20196;-66
2021/08/20 07:32:05;;;;;;;3.53;2.20;;;23.00;99.90;;;;;;5096771;28;20176;-65
2021/08/20 07:34:30;;;;;;;3.67;2.40;;;23.10;99.80;;;;;;5095359;28;20534;-65
2021/08/20 07:36:56;;;;;;;5.83;2.30;;;23.30;99.80;;;;;;5095903;28;20443;-65
2021/08/20 07:39:24;;;;;;;2.30;2.10;;;23.40;99.30;;;;;;5096454;28;20176;-65
2021/08/20 07:41:50;;;;;;;2.67;2.03;;;23.50;99.20;;;;;;5096607;28;20306;-65
2021/08/20 07:44:16;;;;;;;2.70;2.50;;;23.60;99.40;;;;;;5096401;28;20843;-65
2021/08/20 07:46:42;;;;;;;2.83;2.07;;;23.70;98.80;;;;;;5095029;28;20185;-65
2021/08/20 07:49:08;;;;;;;2.40;2.17;;;23.80;98.40;;;;;;5096254;28;20176;-65
2021/08/20 07:51:33;;;;;;;3.77;2.23;;;23.90;98.10;;;;;;5129119;27;21028;-65
2021/08/20 07:53:59;;;;;;;6.00;4.20;;;24.10;97.80;;;;;;5096241;28;20431;-66
2021/08/20 07:56:25;;;;;;;5.57;4.40;;;24.10;97.30;;;;;;5094730;28;20209;-65
2021/08/20 07:58:51;;;;;;;3.07;2.37;;;24.20;97.50;;;;;;5094684;28;20296;-66
2021/08/20 08:01:17;;;;;;;2.20;2.00;;;24.30;97.70;;;;;;5095940;28;20425;-65
2021/08/20 08:03:42;;;;;;;3.10;2.53;;;24.40;97.40;;;;;;5095955;28;20421;-66
2021/08/20 08:06:12;;;;;;;3.00;2.43;;;24.50;97.30;;;;;;5095866;28;20667;-66
2021/08/20 08:08:38;;;;;;;3.03;2.10;;;24.60;97.10;;;;;;5094876;28;20179;-65
2021/08/20 08:11:04;;;;;;;2.40;2.20;;;24.70;96.90;;;;;;5095743;28;20478;-65
2021/08/20 08:13:29;;;;;;;2.40;1.97;;;24.80;96.60;;;;;;5096533;28;20445;-65
2021/08/20 08:15:55;;;;;;;3.97;2.00;;;24.90;96.20;;;;;;5095706;28;20205;-67
2021/08/20 08:18:20;;;;;;;2.70;2.20;;;25.00;96.10;;;;;;5096197;28;20718;-65
2021/08/20 08:20:46;;;;;;;2.83;2.33;;;25.20;95.70;;;;;;5099529;28;20203;-65
2021/08/20 08:23:12;;;;;;;2.53;2.07;;;25.30;95.20;;;;;;5114464;28;20182;-65
2021/08/20 08:25:37;;;;;;;2.30;2.10;;;25.40;95.50;;;;;;5114410;28;20198;-67
2021/08/20 08:28:03;;;;;;;3.10;2.03;;;25.50;95.10;;;;;;5112989;28;20183;-65
2021/08/20 08:30:37;;;;;;;2.17;1.97;;;25.60;95.30;;;;;;5114206;28;20202;-67
2021/08/20 08:33:04;;;;;;;3.20;2.30;;;25.70;94.70;;;;;;5114772;28;20418;-67
2021/08/20 08:35:30;;;;;;;2.20;2.00;;;25.80;94.90;;;;;;5113070;28;20453;-65
2021/08/20 08:38:07;;;;;;;2.83;2.47;;;25.90;94.40;;;;;;5114517;28;20959;-65
2021/08/20 08:40:34;;;;;;;3.27;2.60;;;26.00;94.20;;;;;;5113202;28;20511;-65
2021/08/20 08:43:02;;;;;;;2.37;1.57;;;26.10;94.10;;;;;;5113810;28;20431;-66
2021/08/20 08:45:28;;;;;;;1.90;1.80;;;26.20;94.30;;;;;;5115136;28;20437;-67
2021/08/20 08:47:54;;;;;;;3.40;1.73;;;26.30;94.00;;;;;;5111188;28;20411;-67
2021/08/20 08:50:21;;;;;;;2.00;1.63;;;26.40;93.50;;;;;;5111704;28;20202;-66
2021/08/20 08:52:47;;;;;;;2.57;2.10;;;26.50;93.50;;;;;;5113622;28;20420;-65
2021/08/20 08:55:12;;;;;;;2.60;2.17;;;26.60;92.90;;;;;;5113168;28;20481;-66
2021/08/20 08:57:38;;;;;;;2.13;1.90;;;26.70;93.50;;;;;;5113380;28;20211;-65
2021/08/20 09:00:06;;;;;;;2.83;2.10;;;26.80;92.10;;;;;;5113326;27;20282;-66
2021/08/20 09:02:34;;;;;;;3.20;1.70;;;27.00;91.70;;;;;;5114708;28;20175;-66
2021/08/20 09:05:02;;;;;;;2.53;2.30;;;27.20;91.30;;;;;;5115174;28;20947;-65
2021/08/20 09:07:29;;;;;;;3.73;1.93;;;27.40;91.60;;;;;;5115443;28;20412;-66
2021/08/20 09:10:16;;;;;;;2.43;2.23;;;27.60;91.00;;;;;;5113839;28;20456;-66
2021/08/20 09:12:51;;;;;;;2.23;2.10;;;27.80;90.30;;;;;;5115398;28;20417;-66
2021/08/20 09:15:19;;;;;;;2.60;2.00;;;27.90;90.00;;;;;;5115002;28;20431;-66
2021/08/20 09:17:53;;;;;;;2.80;2.00;;;27.90;90.10;;;;;;5115310;28;20955;-66
2021/08/20 09:20:24;;;;;;;2.07;1.97;;;27.90;89.10;;;;;;5115019;28;20764;-66
2021/08/20 09:22:51;;;;;;;2.80;2.27;;;27.90;89.30;;;;;;5113843;28;20412;-66
2021/08/20 09:25:45;;;;;;;2.20;1.60;;;27.90;88.50;;;;;;5113576;28;20468;-65
2021/08/20 09:28:16;;;;;;;2.73;2.53;;;27.80;88.80;;;;;;5113796;28;20440;-65
2021/08/20 09:31:03;;;;;;;3.17;2.10;;;27.70;89.40;;;;;;5113404;28;20446;-65
2021/08/20 09:33:33;;;;;;;4.10;2.20;;;27.70;89.60;;;;;;5103596;28;20424;-65
2021/08/20 09:36:11;;;;;;;4.03;2.70;;;27.70;89.80;;;;;;5113357;28;20838;-65
2021/08/20 09:38:57;;;;;;;2.33;2.10;;;27.60;89.80;;;;;;5115155;28;20550;-66
2021/08/20 09:41:30;;;;;;;2.40;2.20;;;27.60;89.30;;;;;;5114226;28;20456;-66
2021/08/20 09:44:02;;;;;;;2.20;1.93;;;27.60;88.80;;;;;;5113716;28;20397;-67
2021/08/20 09:46:40;;;;;;;2.20;2.00;;;27.60;89.10;;;;;;5114374;27;20537;-66
2021/08/20 09:49:06;;;;;;;2.57;1.60;;;27.60;89.60;;;;;;5113142;28;20773;-66
2021/08/20 09:51:46;;;;;;;1.90;1.80;;;27.60;88.10;;;;;;5113086;28;20432;-66
2021/08/20 09:54:23;;;;;;;2.70;2.27;;;27.60;87.90;;;;;;5113071;28;20176;-66
2021/08/20 09:56:50;;;;;;;2.13;1.93;;;27.60;89.30;;;;;;5113067;28;20419;-66
2021/08/20 09:59:16;;;;;;;2.23;2.03;;;27.60;87.40;;;;;;5113926;28;20991;-66
2021/08/20 10:01:44;;;;;;;3.07;2.10;;;27.60;87.70;;;;;;5114324;28;20407;-66
2021/08/20 10:04:12;;;;;;;2.10;2.00;;;27.70;87.80;;;;;;5114257;28;20814;-65
2021/08/20 10:06:40;;;;;;;1.93;1.73;;;27.70;87.90;;;;;;5114230;28;20406;-65
2021/08/20 10:09:09;;;;;;;3.83;2.00;;;27.70;88.00;;;;;;5114195;28;20423;-66
2021/08/20 10:11:40;;;;;;;2.70;2.50;;;27.70;89.10;;;;;;5114012;28;20420;-66
2021/08/20 10:14:07;;;;;;;3.80;2.37;;;27.80;89.10;;;;;;5114189;28;20759;-66
2021/08/20 10:16:36;;;;;;;3.30;2.10;;;27.80;87.60;;;;;;5114077;28;20420;-66
2021/08/20 10:19:04;;;;;;;2.70;2.37;;;27.90;87.50;;;;;;5114017;28;20536;-66
2021/08/20 10:21:31;;;;;;;4.47;2.30;;;28.00;87.50;;;;;;5113983;28;20778;-66
2021/08/20 10:23:58;;;;;;;2.90;2.00;;;28.00;87.00;;;;;;5113966;28;20490;-65
2021/08/20 10:26:25;;;;;;;4.07;2.27;;;28.10;86.40;;;;;;5113883;28;20488;-65
2021/08/20 10:28:52;;;;;;;2.10;1.70;;;28.10;86.80;;;;;;5114042;28;20913;-66
2021/08/20 10:31:20;;;;;;;2.20;1.83;;;28.20;87.70;;;;;;5113926;28;20423;-66
2021/08/20 10:33:45;;;;;;;3.37;2.10;;;28.20;87.50;;;;;;5113945;28;20816;-67
2021/08/20 10:36:11;;;;;;;1.83;1.63;;;28.20;86.70;;;;;;5112557;28;20436;-65
2021/08/20 10:39:04;;;;;;;2.23;1.97;;;28.20;87.10;;;;;;5112892;28;20215;-66
2021/08/20 10:41:29;;;;;;;2.20;1.73;;;28.20;87.60;;;;;;5111111;28;20224;-67
2021/08/20 10:44:16;;;;;;;2.73;1.90;;;28.20;87.60;;;;;;5113911;28;20495;-65
2021/08/20 10:46:42;;;;;;;1.90;1.80;;;28.10;87.50;;;;;;5114070;28;20535;-66
2021/08/20 10:49:15;;;;;;;2.87;2.17;;;28.10;87.50;;;;;;5112548;28;20400;-67
2021/08/20 10:51:53;;;;;;;3.10;2.33;;;28.00;87.80;;;;;;5113807;28;20408;-67
2021/08/20 10:54:26;;;;;;;2.73;2.23;;;27.90;88.10;;;;;;5113729;28;20404;-66
2021/08/20 10:56:52;;;;;;;2.53;2.23;;;27.80;85.70;;;;;;5114116;28;20404;-66
2021/08/20 10:59:36;;;;;;;2.03;1.83;;;27.70;86.00;;;;;;5112347;28;20503;-66
2021/08/20 11:02:20;;;;;;;2.70;2.00;;;27.70;85.50;;;;;;5113972;28;20419;-66
2021/08/20 11:04:59;;;;;;;6.17;2.20;;;27.70;84.60;;;;;;5112345;28;20440;-65
2021/08/20 11:07:36;;;;;;;1.60;1.50;;;27.70;83.90;;;;;;5113904;28;20441;-66
2021/08/20 11:10:08;;;;;;;2.60;2.07;;;27.70;84.90;;;;;;5113586;28;20463;-66
2021/08/20 11:12:53;;;;;;;1.87;1.60;;;27.80;84.90;;;;;;5117479;28;20408;-65
2021/08/20 11:15:21;;;;;;;2.30;2.00;;;27.80;84.80;;;;;;5117265;28;20436;-65
2021/08/20 11:17:58;;;;;;;2.07;1.83;;;27.90;84.70;;;;;;5116173;28;20460;-66
2021/08/20 11:20:44;;;;;;;3.80;2.20;;;28.00;85.80;;;;;;5117390;28;20428;-65
2021/08/20 11:25:47;;;;;;;2.07;1.87;;;28.20;84.70;;;;;;5117197;28;20443;-67
2021/08/20 11:28:21;;;;;;;2.10;1.90;;;28.30;82.80;;;;;;5117640;28;20673;-66
2021/08/20 11:31:06;;;;;;;3.50;2.27;;;28.40;83.60;;;;;;5117129;28;20468;-66
2021/08/20 11:33:46;;;;;;;2.20;1.93;;;28.40;81.50;;;;;;5115783;28;20420;-66
2021/08/20 11:36:18;;;;;;;4.33;1.90;;;28.40;80.20;;;;;;5115621;28;20441;-66
2021/08/20 11:38:45;;;;;;;2.63;2.00;;;28.40;81.00;;;;;;5117389;28;20470;-65
2021/08/20 11:41:27;;;;;;;2.27;1.93;;;28.30;80.90;;;;;;5116815;28;20471;-65
2021/08/20 11:43:57;;;;;;;2.10;1.90;;;28.30;81.20;;;;;;5116838;27;20424;-65
2021/08/20 11:46:25;;;;;;;2.30;2.10;;;28.20;81.70;;;;;;5116677;28;20800;-65
2021/08/20 11:48:56;;;;;;;2.70;2.00;;;28.20;82.40;;;;;;5116812;28;20404;-66
2021/08/20 11:51:32;;;;;;;2.87;2.10;;;28.10;83.50;;;;;;5116758;28;20423;-66
2021/08/20 11:54:03;;;;;;;3.17;1.97;;;28.10;83.40;;;;;;5116675;28;20782;-66
2021/08/20 11:56:29;;;;;;;1.80;1.70;;;28.10;83.60;;;;;;5116550;28;20504;-65
2021/08/20 11:58:55;;;;;;;2.10;1.90;;;28.00;83.90;;;;;;5116464;28;20574;-66
2021/08/20 12:01:22;;;;;;;2.97;2.37;;;28.00;83.50;;;;;;5116373;28;20719;-67
2021/08/20 12:03:50;;;;;;;6.23;2.70;;;28.00;83.90;;;;;;5115179;28;20412;-66
2021/08/20 12:06:16;;;;;;;2.53;1.80;;;28.00;83.30;;;;;;5115008;28;20448;-65
2021/08/20 12:08:43;;;;;;;2.87;2.20;;;28.00;83.80;;;;;;5116934;28;20416;-65
2021/08/20 12:11:10;;;;;;;2.57;2.00;;;27.90;83.20;;;;;;5116248;28;20447;-66
2021/08/20 12:13:47;;;;;;;2.10;1.87;;;27.90;82.60;;;;;;5116831;28;20910;-66
2021/08/20 12:16:49;;;;;;;2.27;2.10;;;27.90;82.60;;;;;;5116139;28;20431;-65
2021/08/20 12:19:42;;;;;;;2.90;2.10;;;27.90;81.90;;;;;;5115356;28;20483;-66
2021/08/20 12:22:10;;;;;;;3.20;2.03;;;27.90;81.70;;;;;;5116198;28;20452;-65
2021/08/20 12:24:45;;;;;;;2.00;1.80;;;27.80;81.60;;;;;;5115953;28;20825;-66
2021/08/20 12:27:36;;;;;;;2.30;1.70;;;27.90;82.20;;;;;;5116175;28;20410;-65
2021/08/20 12:30:02;;;;;;;2.27;1.90;;;27.90;82.80;;;;;;5115862;28;20428;-66
2021/08/20 12:32:33;;;;;;;4.20;1.90;;;28.00;82.30;;;;;;5115791;28;20461;-65
2021/08/20 12:35:14;;;;;;;5.00;1.90;;;28.00;82.10;;;;;;5115931;28;20263;-66
2021/08/20 12:37:40;;;;;;;3.47;1.83;;;28.10;81.70;;;;;;5115621;28;20823;-67
2021/08/20 12:40:12;;;;;;;2.30;1.80;;;28.20;81.60;;;;;;5115613;28;20951;-66
2021/08/20 12:42:50;;;;;;;2.63;2.43;;;28.30;81.10;;;;;;5116010;27;20503;-66
2021/08/20 12:45:21;;;;;;;2.37;2.17;;;28.30;81.50;;;;;;5115542;28;20518;-66
2021/08/20 12:48:05;;;;;;;1.70;1.60;;;28.40;82.50;;;;;;5115890;28;20420;-66
2021/08/20 12:50:33;;;;;;;2.17;1.70;;;28.40;80.80;;;;;;5114199;28;20817;-65
2021/08/20 12:53:04;;;;;;;2.17;1.70;;;28.50;79.30;;;;;;5115897;28;20894;-66
2021/08/20 12:55:44;;;;;;;2.07;1.80;;;28.60;81.10;;;;;;5115413;28;20448;-67